Time;durP1;ratioP1;P1;durP2;ratioP2;P2;SDS_P1;SDS_P2;PMS_P1;PMS_P2;Temp;Humidity;BMP_temperature;BMP_pressure;BME280_temperature;BME280_humidity;BME280_pressure;Samples;Min_cycle;Max_cycle;Signal;HPM_P1;HPM_P2
2022/06/06 00:01:15;;;;;;;2.78;2.45;;;;;;;19.76;53.20;100228.81;4518386;31;20118;-66
2022/06/06 00:03:43;;;;;;;3.47;2.33;;;;;;;19.73;53.23;100234.31;4518177;31;20143;-66
2022/06/06 00:06:20;;;;;;;2.70;2.30;;;;;;;19.74;53.08;100248.53;4518042;31;20433;-66
2022/06/06 00:08:48;;;;;;;2.45;2.22;;;;;;;19.79;53.12;100249.19;4518026;31;20091;-66
2022/06/06 00:11:17;;;;;;;3.22;2.35;;;;;;;19.78;51.99;100252.78;4518083;31;20170;-66
2022/06/06 00:13:46;;;;;;;2.25;2.15;;;;;;;19.71;52.48;100246.00;4518043;31;20129;-66
2022/06/06 00:16:14;;;;;;;2.10;2.00;;;;;;;19.70;52.53;100244.28;4518236;31;20488;-66
2022/06/06 00:18:44;;;;;;;2.20;2.10;;;;;;;19.59;53.17;100236.78;4517959;31;20103;-66
2022/06/06 00:21:12;;;;;;;2.42;2.33;;;;;;;19.59;53.47;100236.78;4518033;31;20104;-66
2022/06/06 00:23:40;;;;;;;2.58;2.37;;;;;;;19.48;53.70;100241.84;4518212;31;20194;-66
2022/06/06 00:26:10;;;;;;;2.83;1.92;;;;;;;19.44;53.94;100234.91;4517939;31;20551;-66
2022/06/06 00:28:39;;;;;;;3.67;2.20;;;;;;;19.34;55.12;100239.84;4517795;31;20478;-66
2022/06/06 00:36:39;;;;;;;2.85;2.28;;;;;;;19.25;54.81;100259.88;4517994;31;20502;-66
2022/06/06 00:39:09;;;;;;;2.40;2.20;;;;;;;19.18;54.87;100262.91;4517987;31;20168;-66
2022/06/06 00:41:42;;;;;;;2.60;2.45;;;;;;;19.17;54.92;100263.87;4518026;31;20376;-66
2022/06/06 00:44:19;;;;;;;3.62;2.35;;;;;;;19.15;55.41;100268.41;4518022;31;20461;-66
2022/06/06 00:46:55;;;;;;;2.33;2.20;;;;;;;19.08;55.17;100274.06;4517906;31;20143;-66
2022/06/06 00:49:36;;;;;;;4.53;2.33;;;;;;;19.07;55.33;100272.31;4518072;31;20148;-66
2022/06/06 00:52:09;;;;;;;2.60;2.40;;;;;;;19.00;55.90;100267.34;4517717;31;20117;-66
2022/06/06 00:54:38;;;;;;;2.50;2.40;;;;;;;18.89;56.85;100280.38;4517940;31;20097;-66
2022/06/06 00:57:13;;;;;;;3.78;2.22;;;;;;;18.76;57.31;100285.41;4517940;31;20103;-66
2022/06/06 00:59:43;;;;;;;5.30;2.55;;;;;;;18.73;57.04;100290.88;4517783;31;20087;-66
2022/06/06 01:02:13;;;;;;;2.65;2.45;;;;;;;18.67;58.27;100296.50;4518055;31;20099;-66
2022/06/06 01:04:42;;;;;;;4.70;2.90;;;;;;;18.54;59.40;100302.41;4517879;31;20158;-66
2022/06/06 01:07:11;;;;;;;8.02;2.35;;;;;;;18.51;59.27;100312.34;4517663;31;20438;-66
2022/06/06 01:09:41;;;;;;;4.82;2.78;;;;;;;18.39;59.30;100305.78;4517741;31;20099;-66
2022/06/06 01:12:16;;;;;;;4.28;2.45;;;;;;;18.35;59.57;100310.38;4517913;31;20478;-66
2022/06/06 01:14:50;;;;;;;3.67;2.33;;;;;;;18.37;59.78;100295.19;4518047;31;20430;-66
2022/06/06 01:17:35;;;;;;;2.50;2.30;;;;;;;18.29;59.25;100288.44;4517835;31;20182;-66
2022/06/06 01:20:22;;;;;;;7.70;2.30;;;;;;;18.22;58.80;100279.00;4517760;31;20092;-66
2022/06/06 01:23:25;;;;;;;4.05;2.10;;;;;;;18.20;58.77;100283.53;4517684;31;20496;-66
2022/06/06 01:26:04;;;;;;;2.55;2.35;;;;;;;18.33;58.55;100285.56;4517638;31;20683;-66
2022/06/06 01:28:38;;;;;;;2.60;2.40;;;;;;;18.22;58.61;100287.84;4517529;31;20083;-66
2022/06/06 01:31:12;;;;;;;5.28;2.72;;;;;;;18.24;58.44;100290.47;4517615;31;20103;-66
2022/06/06 01:33:53;;;;;;;2.92;2.67;;;;;;;18.34;58.47;100297.13;4517645;31;20100;-65
2022/06/06 01:36:21;;;;;;;4.22;3.00;;;;;;;18.41;57.67;100293.25;4517611;31;20392;-66
2022/06/06 01:38:49;;;;;;;3.05;2.85;;;;;;;18.46;57.95;100304.56;4517617;31;20087;-66
2022/06/06 01:41:43;;;;;;;3.53;3.22;;;;;;;18.53;57.49;100313.16;4517500;31;20429;-66
2022/06/06 01:44:27;;;;;;;4.68;3.80;;;;;;;18.59;57.27;100326.22;4517628;31;20517;-66
2022/06/06 01:46:58;;;;;;;3.45;3.25;;;;;;;18.66;57.04;100343.69;4517430;31;20121;-66
2022/06/06 01:49:27;;;;;;;3.05;2.85;;;;;;;18.69;57.05;100358.66;4517473;31;20095;-66
2022/06/06 01:52:04;;;;;;;6.57;2.70;;;;;;;18.74;57.02;100360.25;4517385;31;20126;-66
2022/06/06 01:54:32;;;;;;;6.37;3.25;;;;;;;18.79;56.23;100392.03;4517534;31;20087;-66
2022/06/06 01:57:02;;;;;;;5.00;3.05;;;;;;;18.85;56.27;100421.16;4517430;31;20135;-65
2022/06/06 01:59:29;;;;;;;5.45;2.70;;;;;;;18.90;56.58;100453.81;4517494;31;20171;-65
2022/06/06 02:01:56;;;;;;;2.25;2.15;;;;;;;18.85;56.51;100467.41;4517321;31;20165;-65
2022/06/06 02:04:24;;;;;;;2.40;2.30;;;;;;;18.80;57.05;100481.91;4516785;31;20111;-65
2022/06/06 02:06:51;;;;;;;2.60;2.42;;;;;;;18.74;56.76;100482.16;4517489;31;20158;-66
2022/06/06 02:09:19;;;;;;;2.37;2.22;;;;;;;18.75;56.50;100468.72;4517378;31;20505;-66
2022/06/06 02:11:47;;;;;;;3.92;2.60;;;;;;;18.71;56.66;100459.12;4517525;31;20550;-65
2022/06/06 02:14:14;;;;;;;2.55;2.35;;;;;;;18.78;56.17;100454.37;4517461;31;20159;-65
2022/06/06 02:16:41;;;;;;;2.40;2.30;;;;;;;18.75;57.14;100442.03;4517157;31;20076;-66
2022/06/06 02:19:11;;;;;;;2.40;2.30;;;;;;;18.69;56.46;100436.06;4517191;31;20165;-66
2022/06/06 02:21:38;;;;;;;4.40;2.47;;;;;;;18.67;57.85;100424.63;4517357;31;20580;-66
2022/06/06 02:24:06;;;;;;;2.40;2.20;;;;;;;18.55;57.19;100408.22;4517166;31;20100;-66
2022/06/06 02:26:34;;;;;;;2.10;2.00;;;;;;;18.47;57.98;100405.00;4517044;31;20087;-66
2022/06/06 02:29:01;;;;;;;2.90;2.70;;;;;;;18.46;58.36;100407.75;4517210;31;20410;-66
2022/06/06 02:31:29;;;;;;;4.35;2.72;;;;;;;18.47;58.21;100412.16;4517079;31;20442;-66
2022/06/06 02:33:56;;;;;;;2.80;2.60;;;;;;;18.49;58.41;100415.63;4517088;31;20114;-66
2022/06/06 02:36:24;;;;;;;2.78;2.58;;;;;;;18.47;59.66;100417.47;4517044;31;20087;-66
2022/06/06 02:38:51;;;;;;;3.35;2.50;;;;;;;18.45;57.93;100416.69;4516918;31;20099;-66
2022/06/06 02:41:18;;;;;;;2.67;2.47;;;;;;;18.42;58.97;100420.34;4516967;31;20188;-66
2022/06/06 02:43:45;;;;;;;2.78;2.53;;;;;;;18.45;58.59;100416.69;4517225;31;20107;-66
2022/06/06 02:46:14;;;;;;;7.82;2.28;;;;;;;18.40;61.07;100411.53;4516824;31;20084;-66
2022/06/06 02:48:41;;;;;;;2.45;2.33;;;;;;;18.34;61.98;100407.38;4516909;31;20095;-66
2022/06/06 02:51:08;;;;;;;2.55;2.45;;;;;;;18.31;61.32;100414.62;4516772;31;20110;-66
2022/06/06 02:53:36;;;;;;;6.45;2.47;;;;;;;18.28;60.92;100404.94;4516581;31;20146;-66
2022/06/06 02:56:03;;;;;;;3.00;2.70;;;;;;;18.30;61.11;100412.88;4516547;31;20138;-66
2022/06/06 02:58:30;;;;;;;3.05;2.85;;;;;;;18.35;63.37;100413.56;4516600;31;20087;-66
2022/06/06 03:01:07;;;;;;;2.55;2.45;;;;;;;18.43;60.02;100414.06;4516507;31;20167;-66
2022/06/06 03:03:35;;;;;;;3.30;2.78;;;;;;;18.46;59.94;100416.63;4516670;31;20462;-66
2022/06/06 03:06:05;;;;;;;3.35;3.03;;;;;;;18.52;59.60;100418.16;4516386;31;20126;-66
2022/06/06 03:08:49;;;;;;;3.15;2.25;;;;;;;18.50;60.78;100406.69;4516513;31;20071;-66
2022/06/06 03:11:22;;;;;;;2.65;2.55;;;;;;;18.41;61.67;100410.63;4516417;31;20095;-66
2022/06/06 03:14:18;;;;;;;3.12;2.75;;;;;;;18.37;61.09;100403.66;4501562;31;20534;-66
2022/06/06 03:23:10;;;;;;;2.65;2.45;;;;;;;18.51;62.15;100393.25;4518558;31;20034;-66
2022/06/06 03:26:18;;;;;;;3.12;2.80;;;;;;;18.45;61.35;100379.34;4518556;31;20134;-66
2022/06/06 03:29:09;;;;;;;3.83;2.67;;;;;;;18.43;61.45;100374.06;4503438;31;20079;-66
2022/06/06 03:31:56;;;;;;;2.50;2.40;;;;;;;18.47;60.68;100370.31;4518430;31;20155;-66
2022/06/06 03:34:38;;;;;;;2.85;2.65;;;;;;;18.49;60.97;100372.94;4518308;31;20458;-66
2022/06/06 03:37:44;;;;;;;3.95;2.42;;;;;;;18.58;60.06;100365.34;4518694;31;20140;-66
2022/06/06 03:40:15;;;;;;;3.00;2.42;;;;;;;18.60;59.59;100366.16;4515660;31;20143;-66
2022/06/06 03:43:12;;;;;;;2.62;2.42;;;;;;;18.60;60.18;100354.63;4518608;31;20371;-66
2022/06/06 03:45:56;;;;;;;4.72;2.53;;;;;;;18.59;59.73;100348.44;4518367;31;20425;-66
2022/06/06 03:48:45;;;;;;;3.55;2.50;;;;;;;18.67;59.90;100342.75;4518395;31;20076;-66
2022/06/06 03:51:17;;;;;;;2.87;2.50;;;;;;;18.69;59.57;100330.16;4518604;31;20075;-66
2022/06/06 03:53:47;;;;;;;3.42;2.87;;;;;;;18.67;59.54;100324.06;4518311;31;20153;-66
2022/06/06 03:56:27;;;;;;;8.30;3.03;;;;;;;18.71;60.21;100311.44;4518294;31;20080;-66
2022/06/06 03:58:56;;;;;;;2.55;2.35;;;;;;;18.75;60.65;100307.72;4518490;31;20158;-66
2022/06/06 04:01:24;;;;;;;3.42;2.42;;;;;;;18.71;59.92;100316.78;4518225;31;20146;-66
2022/06/06 04:03:53;;;;;;;3.87;3.00;;;;;;;18.73;60.12;100314.91;4518052;31;20087;-65
2022/06/06 04:06:20;;;;;;;3.70;2.40;;;;;;;18.76;59.74;100326.34;4518115;31;20095;-66
2022/06/06 04:08:47;;;;;;;3.33;2.70;;;;;;;18.77;59.64;100341.41;4518082;31;20112;-66
2022/06/06 04:11:30;;;;;;;4.00;2.75;;;;;;;18.90;59.15;100352.37;4518049;31;20471;-66
2022/06/06 04:14:03;;;;;;;3.42;3.15;;;;;;;18.92;58.13;100350.50;4518201;31;20136;-66
2022/06/06 04:16:55;;;;;;;3.62;3.08;;;;;;;18.82;59.74;100357.22;4518082;31;20178;-66
2022/06/06 04:19:52;;;;;;;3.05;2.83;;;;;;;18.77;59.90;100359.25;4518085;31;20104;-66
2022/06/06 04:22:20;;;;;;;3.10;2.60;;;;;;;18.81;58.93;100360.81;4518208;31;20182;-66
2022/06/06 04:25:27;;;;;;;2.97;2.55;;;;;;;18.82;59.55;100371.41;4515677;31;76352;-66
2022/06/06 04:28:26;;;;;;;4.55;2.65;;;;;;;18.82;59.04;100367.88;4517778;31;20500;-66
2022/06/06 04:31:16;;;;;;;3.15;2.70;;;;;;;18.79;60.00;100373.38;4518086;31;20800;-66
2022/06/06 04:34:00;;;;;;;2.60;2.47;;;;;;;18.76;61.20;100374.41;4518125;31;20420;-65
2022/06/06 04:36:51;;;;;;;3.30;3.00;;;;;;;18.73;60.00;100374.53;4518020;31;20408;-66
2022/06/06 04:39:36;;;;;;;4.30;2.90;;;;;;;18.77;59.97;100377.94;4517931;31;20484;-66
2022/06/06 04:42:12;;;;;;;3.70;2.90;;;;;;;18.86;59.66;100382.81;4517919;31;20146;-66
2022/06/06 04:45:01;;;;;;;;;;;;;;;18.76;61.12;100384.19;4518496;31;20143;-66
2022/06/06 04:47:40;;;;;;;3.37;3.10;;;;;;;18.80;59.99;100383.13;4490215;31;20027;-66
2022/06/06 04:50:12;;;;;;;2.80;2.58;;;;;;;18.86;60.75;100386.34;4518036;31;20083;-66
2022/06/06 04:52:45;;;;;;;3.60;2.53;;;;;;;18.87;60.06;100392.59;4517879;31;20154;-66
2022/06/06 04:55:14;;;;;;;2.83;2.62;;;;;;;18.94;59.54;100394.03;4518020;31;20417;-66
2022/06/06 04:57:47;;;;;;;5.95;2.50;;;;;;;19.04;59.27;100397.13;4517879;31;20526;-66
2022/06/06 05:00:15;;;;;;;3.00;2.70;;;;;;;19.13;58.29;100399.37;4517809;31;20526;-66
2022/06/06 05:02:42;;;;;;;4.43;2.75;;;;;;;19.21;58.56;100407.88;4517806;31;20091;-66
2022/06/06 05:05:10;;;;;;;2.67;2.53;;;;;;;19.37;57.67;100400.03;4517769;31;20099;-66
2022/06/06 05:08:01;;;;;;;4.75;3.10;;;;;;;19.29;60.06;100402.16;4517680;31;20232;-66
2022/06/06 05:11:01;;;;;;;3.03;2.85;;;;;;;19.39;59.01;100397.25;4518000;31;20123;-66
2022/06/06 05:13:51;;;;;;;3.20;2.97;;;;;;;19.56;59.65;100403.50;4517901;31;20452;-66
2022/06/06 05:16:36;;;;;;;5.07;3.47;;;;;;;19.66;62.80;100405.78;4517951;31;20083;-66
2022/06/06 05:19:47;;;;;;;3.60;3.30;;;;;;;19.73;63.84;100407.22;4517780;31;20114;-66
2022/06/06 05:22:23;;;;;;;3.37;3.08;;;;;;;19.97;63.28;100408.66;4490389;31;20490;-66
2022/06/06 05:25:06;;;;;;;3.80;3.50;;;;;;;20.26;64.13;100419.69;4517669;31;20090;-66
2022/06/06 05:27:54;;;;;;;5.55;3.22;;;;;;;20.45;64.93;100420.44;4517596;31;20087;-66
2022/06/06 05:30:31;;;;;;;4.00;3.70;;;;;;;20.68;64.27;100415.75;4517791;31;20183;-66
2022/06/06 05:33:18;;;;;;;3.67;3.17;;;;;;;20.66;66.08;100415.81;4517664;31;20164;-66
2022/06/06 05:36:00;;;;;;;3.03;2.83;;;;;;;21.04;63.16;100415.56;4517682;31;20087;-66
2022/06/06 05:38:49;;;;;;;4.40;3.42;;;;;;;21.26;62.48;100417.91;4516646;31;20147;-66
2022/06/06 05:41:55;;;;;;;3.40;3.20;;;;;;;21.46;62.27;100414.16;4517720;31;20087;-66
2022/06/06 05:44:28;;;;;;;5.22;3.15;;;;;;;21.64;62.62;100420.28;4451006;31;20096;-66
2022/06/06 05:47:04;;;;;;;3.45;3.20;;;;;;;21.91;60.32;100413.34;4517794;31;20096;-66
2022/06/06 05:49:53;;;;;;;4.10;3.22;;;;;;;22.12;62.03;100408.53;4517359;31;20147;-66
2022/06/06 05:52:35;;;;;;;2.70;2.50;;;;;;;22.21;60.99;100403.59;4517556;31;20110;-66
2022/06/06 05:55:22;;;;;;;4.18;3.22;;;;;;;22.10;59.26;100407.75;4517395;31;20083;-66
2022/06/06 05:58:10;;;;;;;3.40;3.17;;;;;;;22.24;59.70;100417.69;4517450;31;20739;-66
2022/06/06 06:00:55;;;;;;;3.83;3.25;;;;;;;22.21;60.33;100417.00;4517365;31;20143;-66
2022/06/06 06:03:48;;;;;;;3.95;3.53;;;;;;;22.14;60.84;100421.84;4517314;31;20114;-66
2022/06/06 06:06:24;;;;;;;6.43;3.92;;;;;;;21.77;62.72;100417.75;4517208;31;20092;-66
2022/06/06 06:09:16;;;;;;;4.57;3.67;;;;;;;21.48;64.60;100426.53;4517207;31;20125;-66
2022/06/06 06:11:43;;;;;;;4.10;3.70;;;;;;;21.40;65.14;100426.09;4517488;31;20155;-66
2022/06/06 06:14:36;;;;;;;4.18;3.87;;;;;;;21.58;65.35;100420.63;4517049;31;20130;-66
2022/06/06 06:17:04;;;;;;;4.28;3.72;;;;;;;21.88;65.06;100426.06;4517139;31;20088;-66
2022/06/06 06:19:39;;;;;;;3.90;3.60;;;;;;;21.96;64.22;100427.34;4517096;31;20543;-66
2022/06/06 06:22:08;;;;;;;5.30;3.62;;;;;;;22.22;63.60;100430.31;4517214;31;20086;-66
2022/06/06 06:24:40;;;;;;;5.40;3.40;;;;;;;22.47;61.46;100426.16;4516971;31;20110;-66
2022/06/06 06:27:08;;;;;;;3.75;3.10;;;;;;;22.87;60.36;100438.91;4516893;31;20455;-66
2022/06/06 06:29:35;;;;;;;4.95;3.40;;;;;;;23.00;61.10;100436.31;4517124;31;20111;-66
2022/06/06 06:32:40;;;;;;;4.75;3.05;;;;;;;22.99;61.34;100436.44;4516875;31;20087;-66
2022/06/06 06:35:43;;;;;;;7.60;2.87;;;;;;;23.28;56.58;100437.25;4516890;31;20107;-66
2022/06/06 06:38:35;;;;;;;3.55;3.25;;;;;;;23.66;54.33;100431.25;4485206;31;20463;-66
2022/06/06 06:41:31;;;;;;;4.18;3.37;;;;;;;23.73;56.08;100425.38;4516955;31;20103;-66
2022/06/06 06:44:21;;;;;;;3.62;3.25;;;;;;;23.94;54.66;100428.47;4516785;31;20519;-66
2022/06/06 06:46:56;;;;;;;3.20;2.75;;;;;;;24.31;52.52;100428.66;4506706;31;20182;-66
2022/06/06 06:49:41;;;;;;;4.15;3.75;;;;;;;23.81;53.38;100431.09;4517491;31;20118;-66
2022/06/06 06:52:09;;;;;;;3.53;2.83;;;;;;;23.58;52.37;100427.22;4518928;31;20434;-66
2022/06/06 06:55:07;;;;;;;4.15;2.97;;;;;;;23.75;53.01;100422.59;4518736;31;20218;-66
2022/06/06 06:58:19;;;;;;;3.65;2.87;;;;;;;23.62;53.88;100428.75;4518730;31;20087;-66
2022/06/06 07:00:55;;;;;;;3.40;3.10;;;;;;;23.34;55.81;100426.97;4518666;31;20418;-66
2022/06/06 07:10:24;;;;;;;4.20;3.05;;;;;;;22.72;53.76;100431.78;4518673;31;20390;-66
2022/06/06 07:12:54;;;;;;;2.95;2.80;;;;;;;22.80;54.36;100426.81;4518673;31;20095;-66
2022/06/06 07:15:36;;;;;;;2.80;2.67;;;;;;;23.08;52.25;100428.66;4518603;31;20083;-66
2022/06/06 07:18:07;;;;;;;4.05;3.10;;;;;;;23.35;51.88;100441.28;4518547;31;20087;-66
2022/06/06 07:20:40;;;;;;;6.07;3.10;;;;;;;23.42;49.76;100428.31;4518724;31;20075;-66
2022/06/06 07:23:11;;;;;;;6.18;3.12;;;;;;;23.49;50.84;100440.41;4518815;31;20084;-66
2022/06/06 07:25:41;;;;;;;3.40;3.10;;;;;;;23.46;51.67;100435.22;4518558;31;20167;-66
2022/06/06 07:28:13;;;;;;;2.97;2.78;;;;;;;23.52;50.68;100432.12;4518413;31;20133;-66
2022/06/06 07:30:49;;;;;;;4.57;2.78;;;;;;;23.40;51.10;100430.25;4518600;31;20135;-66
2022/06/06 07:33:41;;;;;;;3.37;2.60;;;;;;;23.61;50.19;100436.94;4518577;31;20432;-66
2022/06/06 07:36:41;;;;;;;3.55;2.55;;;;;;;23.91;47.60;100435.91;4518589;31;20179;-66
2022/06/06 07:39:26;;;;;;;5.70;2.33;;;;;;;24.26;45.05;100447.84;4446601;31;20123;-66
2022/06/06 07:42:41;;;;;;;2.40;2.30;;;;;;;24.55;41.93;100453.09;4518365;31;20170;-66
2022/06/06 07:45:22;;;;;;;2.92;2.72;;;;;;;24.63;43.23;100444.47;4436420;32;20104;-66
2022/06/06 07:47:51;;;;;;;2.65;2.45;;;;;;;24.90;43.55;100447.06;4436652;32;20166;-67
2022/06/06 07:50:24;;;;;;;2.80;2.10;;;;;;;24.96;42.59;100458.28;4489003;31;20102;-66
2022/06/06 07:53:09;;;;;;;3.05;2.50;;;;;;;25.05;41.96;100451.38;4503203;31;20125;-66
2022/06/06 07:55:52;;;;;;;2.33;2.22;;;;;;;25.13;42.67;100456.28;4518349;31;20440;-66
2022/06/06 07:58:50;;;;;;;2.45;2.15;;;;;;;25.32;42.17;100453.97;4518377;31;20171;-66
2022/06/06 08:01:40;;;;;;;2.37;2.15;;;;;;;25.78;40.51;100455.13;4517547;31;20087;-66
2022/06/06 08:04:27;;;;;;;2.72;2.20;;;;;;;25.68;39.42;100463.91;4518128;31;20117;-66
2022/06/06 08:07:21;;;;;;;3.30;2.10;;;;;;;25.58;39.72;100456.59;4518328;31;20084;-66
2022/06/06 08:10:12;;;;;;;2.17;2.08;;;;;;;25.76;38.60;100466.06;4481037;31;20087;-66
2022/06/06 08:13:01;;;;;;;2.22;2.03;;;;;;;25.65;39.50;100460.56;4518376;31;20447;-66
2022/06/06 08:15:54;;;;;;;2.45;2.35;;;;;;;25.79;39.54;100467.63;4518163;31;20554;-66
2022/06/06 08:18:40;;;;;;;2.55;2.35;;;;;;;26.15;39.24;100470.34;4503977;31;20152;-66
2022/06/06 08:21:39;;;;;;;2.17;2.08;;;;;;;26.40;38.50;100457.66;4518367;31;20091;-67
2022/06/06 08:24:32;;;;;;;2.20;2.10;;;;;;;27.12;37.67;100455.62;4518054;31;20396;-66
2022/06/06 08:27:20;;;;;;;2.28;2.05;;;;;;;27.71;37.11;100451.75;4517906;31;20086;-66
2022/06/06 08:29:49;;;;;;;1.95;1.75;;;;;;;27.48;36.15;100458.19;4503102;31;20171;-67
2022/06/06 08:32:16;;;;;;;2.30;2.20;;;;;;;27.44;37.18;100457.56;4517947;31;20125;-67
2022/06/06 08:34:44;;;;;;;4.37;2.37;;;;;;;27.69;36.03;100453.72;4517791;31;20163;-67
2022/06/06 08:37:14;;;;;;;2.33;2.22;;;;;;;27.06;37.48;100457.91;4517855;31;20489;-67
2022/06/06 08:40:06;;;;;;;7.40;2.50;;;;;;;26.47;37.97;100458.94;4517922;31;20111;-66
2022/06/06 08:43:13;;;;;;;4.32;2.33;;;;;;;26.62;39.55;100460.44;4517913;31;20115;-67
2022/06/06 08:46:21;;;;;;;2.97;2.30;;;;;;;26.71;38.66;100461.56;4487989;31;20491;-66
2022/06/06 08:49:03;;;;;;;3.17;2.80;;;;;;;26.67;39.49;100458.22;4479068;31;20075;-66
2022/06/06 08:51:50;;;;;;;2.37;2.28;;;;;;;27.05;39.07;100457.06;4518112;31;20438;-67
2022/06/06 08:54:44;;;;;;;4.22;2.47;;;;;;;26.95;39.42;100458.78;4518008;31;20539;-67
2022/06/06 08:57:38;;;;;;;2.78;2.67;;;;;;;26.86;38.88;100457.66;4517928;31;20567;-67
2022/06/06 09:00:34;;;;;;;2.85;2.65;;;;;;;26.48;41.18;100449.84;4518140;31;20469;-66
2022/06/06 09:03:46;;;;;;;4.05;2.78;;;;;;;26.49;40.57;100451.56;4517651;31;20114;-66
2022/06/06 09:06:29;;;;;;;3.10;2.90;;;;;;;26.01;41.72;100454.31;4485051;31;20122;-66
2022/06/06 09:09:21;;;;;;;5.22;3.15;;;;;;;25.50;42.65;100462.56;4518016;31;20483;-67
2022/06/06 09:12:07;;;;;;;4.70;3.42;;;;;;;25.18;43.12;100459.50;4517915;31;20117;-66
2022/06/06 09:14:49;;;;;;;3.50;2.73;;;;;;;25.04;43.12;100460.44;4517846;31;20457;-66
2022/06/06 09:17:19;;;;;;;3.72;3.22;;;;;;;25.38;41.52;100461.63;4517957;31;20553;-66
2022/06/06 09:20:28;;;;;;;3.92;3.60;;;;;;;26.05;42.61;100447.69;4518256;31;20114;-66
2022/06/06 09:23:29;;;;;;;5.78;3.25;;;;;;;26.23;40.06;100451.69;4480697;31;20442;-67
2022/06/06 09:26:01;;;;;;;2.80;2.60;;;;;;;26.44;40.60;100443.78;4517807;31;20452;-67
2022/06/06 09:28:47;;;;;;;2.90;2.70;;;;;;;26.33;40.49;100438.34;4517568;31;20166;-66
2022/06/06 09:31:43;;;;;;;3.35;3.05;;;;;;;26.97;39.72;100435.19;4517820;31;20143;-67
2022/06/06 09:34:43;;;;;;;3.30;3.10;;;;;;;27.01;39.76;100435.81;4517912;31;20087;-67
2022/06/06 09:37:31;;;;;;;3.65;2.60;;;;;;;26.94;39.59;100435.44;4517772;31;20147;-67
2022/06/06 09:40:18;;;;;;;3.47;3.20;;;;;;;26.61;38.40;100430.84;4517973;31;20163;-67
2022/06/06 09:43:00;;;;;;;5.15;3.05;;;;;;;26.17;40.74;100424.28;4517889;31;20071;-66
2022/06/06 09:45:34;;;;;;;3.15;2.85;;;;;;;26.48;39.24;100433.63;4517896;31;20139;-67
2022/06/06 09:48:19;;;;;;;2.45;2.30;;;;;;;27.39;40.23;100427.34;4517698;31;20140;-66
2022/06/06 09:51:06;;;;;;;5.00;2.65;;;;;;;27.91;36.36;100428.44;4517702;31;20435;-66
2022/06/06 09:59:01;;;;;;;3.17;2.97;;;;;;;27.26;36.27;100422.06;4517629;31;20083;-66
2022/06/06 09:59:55;;;;;;;2.80;2.60;;;;;;;27.08;37.11;100416.25;4517388;31;20103;-66
2022/06/06 10:02:46;;;;;;;3.28;3.03;;;;;;;27.63;38.15;100411.78;4517308;31;20465;-67
2022/06/06 10:05:45;;;;;;;2.85;2.65;;;;;;;27.81;37.21;100416.66;4518218;31;20081;-66
2022/06/06 10:08:49;;;;;;;3.55;3.22;;;;;;;27.69;37.73;100415.81;4517185;31;20434;-66
2022/06/06 10:11:41;;;;;;;3.42;3.22;;;;;;;27.87;38.43;100421.56;4517199;31;20894;-67
2022/06/06 10:14:42;;;;;;;5.15;3.20;;;;;;;28.22;38.69;100415.03;4517479;31;20095;-67
2022/06/06 10:17:32;;;;;;;4.95;3.00;;;;;;;28.24;37.38;100407.63;4517177;31;20187;-66
2022/06/06 10:20:26;;;;;;;3.65;2.97;;;;;;;29.37;34.51;100400.41;4517152;31;20127;-66
2022/06/06 10:23:03;;;;;;;3.00;2.45;;;;;;;30.70;32.91;100390.69;4517190;31;20080;-67
2022/06/06 10:25:48;;;;;;;2.80;2.70;;;;;;;30.98;31.48;100388.06;4516648;31;20617;-67
2022/06/06 10:28:33;;;;;;;5.50;2.60;;;;;;;31.37;30.98;100396.91;4516992;31;20083;-67
2022/06/06 10:31:11;;;;;;;2.60;2.17;;;;;;;30.71;30.92;100397.03;4517072;31;20494;-67
2022/06/06 10:34:04;;;;;;;3.03;2.33;;;;;;;30.32;30.03;100396.22;4517078;31;20087;-67
2022/06/06 10:36:59;;;;;;;2.60;2.47;;;;;;;29.22;32.09;100393.66;4517228;31;20805;-67
2022/06/06 10:39:45;;;;;;;2.47;2.15;;;;;;;29.15;33.56;100397.91;4516902;31;20076;-67
2022/06/06 10:42:35;;;;;;;2.97;2.25;;;;;;;29.11;32.92;100400.03;4516822;31;20158;-67
2022/06/06 10:45:21;;;;;;;2.67;2.47;;;;;;;29.32;33.15;100397.25;4516816;31;20160;-67
2022/06/06 10:47:48;;;;;;;2.62;2.33;;;;;;;29.33;33.64;100382.69;4516890;31;20083;-67
2022/06/06 10:51:36;;;;;;;2.67;2.47;;;;;;;29.92;30.83;100370.91;4516678;31;20080;-67
2022/06/06 10:53:49;;;;;;;3.30;2.40;;;;;;;30.35;29.68;100374.19;4516709;31;20419;-67
2022/06/06 10:56:37;;;;;;;3.85;2.62;;;;;;;30.75;31.06;100370.38;4516619;31;20103;-67
2022/06/06 10:59:20;;;;;;;2.35;1.83;;;;;;;29.97;28.66;100360.50;4516484;31;20155;-67
2022/06/06 11:02:11;;;;;;;2.22;2.12;;;;;;;28.99;30.00;100368.59;4516537;31;20075;-67
2022/06/06 11:04:54;;;;;;;2.15;2.05;;;;;;;28.91;29.67;100373.81;4501343;31;20483;-66
2022/06/06 11:07:40;;;;;;;6.10;2.15;;;;;;;28.84;29.34;100370.78;4516477;31;20448;-66
2022/06/06 11:10:29;;;;;;;4.93;2.22;;;;;;;28.82;30.01;100362.78;4516373;31;20163;-66
2022/06/06 11:13:34;;;;;;;2.65;2.22;;;;;;;28.56;30.03;100364.22;4516443;31;20155;-66
2022/06/06 11:16:29;;;;;;;7.60;2.50;;;;;;;28.78;30.65;100365.91;4516468;31;20087;-66
2022/06/06 11:19:02;;;;;;;3.12;2.45;;;;;;;29.46;30.85;100367.00;4516442;31;20122;-66
2022/06/06 11:21:57;;;;;;;4.47;2.37;;;;;;;29.23;29.60;100362.81;4516242;31;20095;-66
2022/06/06 11:24:40;;;;;;;3.50;1.98;;;;;;;29.09;31.14;100368.63;4516082;31;20132;-66
2022/06/06 11:27:22;;;;;;;2.22;2.12;;;;;;;30.23;28.73;100354.47;4516163;31;20438;-66
2022/06/06 11:30:02;;;;;;;2.78;2.42;;;;;;;31.10;27.66;100362.37;4516122;31;20170;-66
2022/06/06 11:32:53;;;;;;;1.83;1.73;;;;;;;29.82;28.06;100331.19;4516330;31;20528;-66
2022/06/06 11:35:54;;;;;;;2.87;2.05;;;;;;;30.40;27.71;100345.56;4501301;31;20147;-66
2022/06/06 11:38:32;;;;;;;2.50;2.40;;;;;;;31.50;26.71;100343.97;4518502;31;20091;-67
2022/06/06 11:41:28;;;;;;;2.65;2.45;;;;;;;32.42;25.96;100346.34;4518377;31;20431;-67
2022/06/06 11:44:04;;;;;;;2.60;2.40;;;;;;;32.97;23.97;100346.00;4518315;31;20851;-67
2022/06/06 11:47:00;;;;;;;2.37;2.08;;;;;;;33.68;23.50;100347.41;4518350;31;20487;-67
2022/06/06 11:49:45;;;;;;;2.55;2.35;;;;;;;34.84;22.60;100340.81;4518347;31;20095;-67
2022/06/06 11:52:15;;;;;;;1.95;1.85;;;;;;;34.81;22.62;100346.63;4518212;31;20099;-67
2022/06/06 11:55:20;;;;;;;4.15;2.20;;;;;;;35.61;21.32;100344.56;4518184;31;20496;-67
2022/06/06 11:58:09;;;;;;;2.30;2.10;;;;;;;35.99;21.87;100335.56;4518323;31;20478;-67
2022/06/06 12:01:00;;;;;;;1.90;1.80;;;;;;;36.25;21.21;100336.00;4518284;31;20506;-67
2022/06/06 12:03:28;;;;;;;1.70;1.60;;;;;;;37.21;22.21;100328.78;4518547;31;20087;-67
2022/06/06 12:06:23;;;;;;;2.60;2.40;;;;;;;38.97;20.02;100325.22;4518127;31;20126;-67
2022/06/06 12:08:59;;;;;;;2.10;2.00;;;;;;;38.48;19.55;100317.09;4518293;31;20462;-67
2022/06/06 12:12:00;;;;;;;2.55;2.33;;;;;;;37.59;19.67;100320.31;4518141;31;20503;-66
2022/06/06 12:14:52;;;;;;;2.00;1.90;;;;;;;37.17;20.64;100316.44;4518243;31;20435;-67
2022/06/06 12:17:41;;;;;;;2.30;2.10;;;;;;;36.61;21.47;100305.16;4518178;31;20095;-67
2022/06/06 12:20:36;;;;;;;2.35;2.00;;;;;;;36.14;20.92;100300.81;4518009;31;20126;-67
2022/06/06 12:23:29;;;;;;;3.65;2.10;;;;;;;36.81;22.44;100299.91;4518266;31;20117;-67
2022/06/06 12:26:39;;;;;;;3.12;1.90;;;;;;;38.21;20.23;100300.38;4518081;31;20076;-67
2022/06/06 12:29:31;;;;;;;3.10;2.03;;;;;;;39.00;20.60;100298.31;4517937;31;20096;-67
2022/06/06 12:32:39;;;;;;;2.53;2.35;;;;;;;39.59;19.16;100297.66;4518066;31;20143;-67
2022/06/06 12:35:43;;;;;;;2.10;2.00;;;;;;;39.59;18.12;100292.16;4518176;31;20079;-68
2022/06/06 12:38:43;;;;;;;2.47;2.20;;;;;;;40.07;19.18;100291.97;4518157;31;20095;-67
2022/06/06 12:41:37;;;;;;;2.55;2.45;;;;;;;39.14;18.74;100289.88;4518045;31;20174;-67
2022/06/06 12:44:33;;;;;;;2.22;2.12;;;;;;;38.96;18.86;100284.13;4518073;31;20079;-67
2022/06/06 12:47:03;;;;;;;2.35;2.25;;;;;;;38.35;20.25;100279.34;4517518;31;20159;-67
2022/06/06 12:50:08;;;;;;;2.87;2.20;;;;;;;38.79;19.09;100277.22;4517683;31;20488;-67
2022/06/06 12:53:06;;;;;;;2.35;2.25;;;;;;;38.27;18.36;100287.69;4518127;31;20129;-67
2022/06/06 12:58:41;;;;;;;2.67;2.30;;;;;;;37.36;20.52;100281.16;4518079;31;20099;-67